PNS weather

Pensacola Regional Airport
Pensacola, Florida, United States

Public forecast

Using degrees Fahrenheit for public forecast. Weather courtesy of forecast.io.

Current aviation weather report (METAR) for Pensacola Regional Airport

Retrieved 2019/10/16 06:25 UTC (19 minutes ago):

KPNS 160625Z AUTO 25008KT 4SM +RA BKN049 OVC065 23/23 A2992 RMK AO2 LTG DSNT W P0017 T02280228

Aviation forecast (TAF) for Pensacola Regional Airport

Retrieved 2019/10/16 06:22 UTC (22 minutes ago):

TAF KPNS 160520Z 1606/1706 28006KT 6SM -SHRA FEW007 BKN040 OVC110 TEMPO 1606/1610 4SM -SHRA SCT007 BKN020 OVC110 FM161500 30011G17KT 4SM BR VCSH OVC020